createdAt,value
2023-02-27T00:01:34.586Z,-2.03
2023-02-27T00:04:01.241Z,-2.04
2023-02-27T00:06:28.306Z,-2.07
2023-02-27T00:08:54.779Z,-2.09
2023-02-27T00:11:21.235Z,-2.14
2023-02-27T00:13:47.971Z,-2.15
2023-02-27T00:16:14.451Z,-2.13
2023-02-27T00:18:41.069Z,-2.14
2023-02-27T00:21:07.452Z,-2.15
2023-02-27T00:23:33.885Z,-2.16
2023-02-27T00:26:01.025Z,-2.19
2023-02-27T00:28:27.812Z,-2.20
2023-02-27T00:30:54.581Z,-2.22
2023-02-27T00:33:21.186Z,-2.26
2023-02-27T00:36:00.362Z,-2.30
2023-02-27T00:38:26.796Z,-2.33
2023-02-27T00:40:53.250Z,-2.31
2023-02-27T00:43:19.771Z,-2.31
2023-02-27T00:45:47.670Z,-2.38
2023-02-27T00:48:14.276Z,-2.41
2023-02-27T00:50:40.639Z,-2.44
2023-02-27T00:53:07.007Z,-2.42
2023-02-27T00:55:33.603Z,-2.41
2023-02-27T00:58:00.006Z,-2.42
2023-02-27T01:00:26.435Z,-2.42
2023-02-27T01:02:52.864Z,-2.41
2023-02-27T01:05:19.441Z,-2.44
2023-02-27T01:07:45.813Z,-2.46
2023-02-27T01:10:12.486Z,-2.49
2023-02-27T01:12:39.270Z,-2.51
2023-02-27T01:15:06.406Z,-2.51
2023-02-27T01:17:32.952Z,-2.54
2023-02-27T01:19:59.474Z,-2.55
2023-02-27T01:22:25.864Z,-2.58
2023-02-27T01:24:52.446Z,-2.61
2023-02-27T01:27:18.818Z,-2.62
2023-02-27T01:29:45.194Z,-2.65
2023-02-27T01:32:11.880Z,-2.70
2023-02-27T01:34:38.295Z,-2.66
2023-02-27T01:37:04.692Z,-2.67
2023-02-27T01:39:32.813Z,-2.67
2023-02-27T01:41:59.781Z,-2.68
2023-02-27T01:44:27.038Z,-2.71
2023-02-27T01:46:53.374Z,-2.75
2023-02-27T01:49:32.510Z,-2.80
2023-02-27T01:52:05.614Z,-2.81
2023-02-27T01:54:34.927Z,-2.81
2023-02-27T01:57:03.142Z,-2.79
2023-02-27T01:59:29.627Z,-2.77
2023-02-27T02:01:56.254Z,-2.77
2023-02-27T02:04:26.331Z,-2.77
2023-02-27T02:06:59.928Z,-2.78
2023-02-27T02:09:26.405Z,-2.81
2023-02-27T02:11:53.046Z,-2.82
2023-02-27T02:14:19.551Z,-2.87
2023-02-27T02:16:54.662Z,-2.86
2023-02-27T02:19:46.120Z,-2.88
2023-02-27T02:22:12.635Z,-2.91
2023-02-27T02:25:13.274Z,-2.92
2023-02-27T02:27:58.500Z,-2.91
2023-02-27T02:31:03.447Z,-2.90
2023-02-27T02:33:42.042Z,-2.94
2023-02-27T02:36:42.429Z,-3.01
2023-02-27T02:39:29.313Z,-3.05
2023-02-27T02:42:05.620Z,-3.05
2023-02-27T02:44:51.202Z,-3.08
2023-02-27T02:47:23.086Z,-3.08
2023-02-27T02:49:55.499Z,-3.10
2023-02-27T02:52:28.103Z,-3.11
2023-02-27T02:55:08.415Z,-3.11
2023-02-27T02:57:45.604Z,-3.07
2023-02-27T03:00:16.109Z,-3.04
2023-02-27T03:02:54.173Z,-3.07
2023-02-27T03:05:33.117Z,-3.14
2023-02-27T03:08:05.009Z,-3.16
2023-02-27T03:10:40.393Z,-3.19
2023-02-27T03:13:17.904Z,-3.18
2023-02-27T03:15:47.440Z,-3.18
2023-02-27T03:18:19.641Z,-3.20
2023-02-27T03:20:49.469Z,-3.23
2023-02-27T03:23:18.182Z,-3.20
2023-02-27T03:25:46.277Z,-3.18
2023-02-27T03:28:18.779Z,-3.20
2023-02-27T03:30:49.637Z,-3.20
2023-02-27T03:33:40.157Z,-3.21
2023-02-27T03:36:11.975Z,-3.20
2023-02-27T03:38:41.363Z,-3.27
2023-02-27T03:41:20.128Z,-3.31
2023-02-27T03:43:51.420Z,-3.36
2023-02-27T03:46:21.011Z,-3.41
2023-02-27T03:48:47.453Z,-3.40
2023-02-27T03:51:15.877Z,-3.38
2023-02-27T03:54:10.946Z,-3.39
2023-02-27T03:57:01.291Z,-3.38
2023-02-27T03:59:28.238Z,-3.38
2023-02-27T04:01:55.534Z,-3.43
2023-02-27T04:04:22.063Z,-3.48
2023-02-27T04:07:10.643Z,-3.49
2023-02-27T04:10:07.809Z,-3.49
2023-02-27T04:13:03.397Z,-3.50
2023-02-27T04:16:07.102Z,-3.55
2023-02-27T04:18:51.249Z,-3.58
2023-02-27T04:21:59.346Z,-3.56
2023-02-27T04:24:34.576Z,-3.57
2023-02-27T04:27:38.601Z,-3.54
2023-02-27T04:30:16.405Z,-3.55
2023-02-27T04:32:53.416Z,-3.55
2023-02-27T04:35:25.846Z,-3.59
2023-02-27T04:38:06.427Z,-3.59
2023-02-27T04:40:37.433Z,-3.61
2023-02-27T04:43:04.020Z,-3.62
2023-02-27T04:45:30.414Z,-3.59
2023-02-27T04:48:00.561Z,-3.59
2023-02-27T04:50:52.207Z,-3.52
2023-02-27T04:53:39.506Z,-3.48
2023-02-27T04:56:09.658Z,-3.45
2023-02-27T04:58:45.322Z,-3.48
2023-02-27T05:01:15.112Z,-3.52
2023-02-27T05:03:47.435Z,-3.59
2023-02-27T05:06:14.582Z,-3.60
2023-02-27T05:08:58.902Z,-3.58
2023-02-27T05:11:29.824Z,-3.58
2023-02-27T05:14:04.060Z,-3.65
2023-02-27T05:16:39.013Z,-3.68
2023-02-27T05:19:05.433Z,-3.72
2023-02-27T05:21:41.140Z,-3.73
2023-02-27T05:24:33.079Z,-3.69
2023-02-27T05:27:31.423Z,-3.60
2023-02-27T05:30:26.045Z,-3.61
2023-02-27T05:32:56.826Z,-3.58
2023-02-27T05:35:28.923Z,-3.60
2023-02-27T05:37:59.510Z,-3.65
2023-02-27T05:40:30.777Z,-3.64
2023-02-27T05:43:13.034Z,-3.64
2023-02-27T05:45:40.750Z,-3.68
2023-02-27T05:48:35.790Z,-3.73
2023-02-27T05:51:02.154Z,-3.78
2023-02-27T05:53:30.731Z,-3.76
2023-02-27T05:55:58.906Z,-3.78
2023-02-27T05:58:28.356Z,-3.80
2023-02-27T06:00:56.775Z,-3.82
2023-02-27T06:03:23.177Z,-3.84
2023-02-27T06:05:50.079Z,-3.80
2023-02-27T06:08:16.431Z,-3.73
2023-02-27T06:10:42.806Z,-3.65
2023-02-27T06:13:09.145Z,-3.59
2023-02-27T06:15:35.700Z,-3.50
2023-02-27T06:18:02.094Z,-3.44
2023-02-27T06:20:28.650Z,-3.39
2023-02-27T06:22:55.045Z,-3.35
2023-02-27T06:25:22.235Z,-3.25
2023-02-27T06:27:48.625Z,-3.15
2023-02-27T06:30:15.188Z,-3.04
2023-02-27T06:32:41.544Z,-2.83
2023-02-27T06:35:08.522Z,-2.72
2023-02-27T06:37:34.862Z,-2.64
2023-02-27T06:40:01.212Z,-2.62
2023-02-27T06:42:27.602Z,-2.57
2023-02-27T06:44:54.027Z,-2.48
2023-02-27T06:47:20.392Z,-2.40
2023-02-27T06:49:46.784Z,-2.34
2023-02-27T06:52:13.170Z,-2.28
2023-02-27T06:54:39.601Z,-2.16
2023-02-27T06:57:06.046Z,-2.06
2023-02-27T06:59:32.428Z,-1.97
2023-02-27T07:01:59.193Z,-1.91
2023-02-27T07:04:25.668Z,-1.86
2023-02-27T07:07:32.447Z,-1.79
2023-02-27T07:09:39.431Z,-1.71
2023-02-27T07:12:06.335Z,-1.66
2023-02-27T07:14:32.749Z,-1.63
2023-02-27T07:17:03.119Z,-1.58
2023-02-27T07:19:29.917Z,-1.52
2023-02-27T07:21:56.299Z,-1.47
2023-02-27T07:24:22.732Z,-1.41
2023-02-27T07:26:49.257Z,-1.40
2023-02-27T07:29:15.840Z,-1.36
2023-02-27T07:31:42.202Z,-1.31
2023-02-27T07:34:11.885Z,-1.30
2023-02-27T07:36:38.680Z,-1.27
2023-02-27T07:39:05.773Z,-1.26
2023-02-27T07:41:32.140Z,-1.23
2023-02-27T07:43:58.503Z,-1.19
2023-02-27T07:46:27.367Z,-1.15
2023-02-27T07:48:54.338Z,-1.15
2023-02-27T07:51:20.764Z,-1.17
2023-02-27T07:53:47.150Z,-1.17
2023-02-27T07:56:13.923Z,-1.14
2023-02-27T07:58:40.279Z,-1.03
2023-02-27T08:01:06.817Z,-0.94
2023-02-27T08:03:33.189Z,-0.84
2023-02-27T08:06:02.129Z,-0.75
2023-02-27T08:08:29.561Z,-0.70
2023-02-27T08:10:56.190Z,-0.63
2023-02-27T08:13:42.258Z,-0.58
2023-02-27T08:16:09.218Z,-0.52
2023-02-27T08:18:35.580Z,-0.47
2023-02-27T08:21:05.014Z,-0.48
2023-02-27T08:23:32.326Z,-0.46
2023-02-27T08:25:58.891Z,-0.38
2023-02-27T08:28:25.346Z,-0.27
2023-02-27T08:30:51.733Z,-0.18
2023-02-27T08:33:18.131Z,-0.12
2023-02-27T08:35:44.690Z,-0.06
2023-02-27T08:38:11.101Z,0.00
2023-02-27T08:40:37.662Z,0.09
2023-02-27T08:43:04.166Z,0.19
2023-02-27T08:45:30.738Z,0.20
2023-02-27T08:47:57.453Z,0.19
2023-02-27T08:50:23.866Z,0.25
2023-02-27T08:52:50.458Z,0.30
2023-02-27T08:55:16.929Z,0.35
2023-02-27T08:57:43.526Z,0.41
2023-02-27T09:00:10.745Z,0.44
2023-02-27T09:02:37.218Z,0.47
2023-02-27T09:05:03.806Z,0.49
2023-02-27T09:07:30.425Z,0.57
2023-02-27T09:09:56.815Z,0.67
2023-02-27T09:12:23.360Z,0.69
2023-02-27T09:14:49.725Z,0.76
2023-02-27T09:17:16.386Z,0.84
2023-02-27T09:19:42.783Z,0.85
2023-02-27T09:22:09.143Z,0.81
2023-02-27T09:24:36.404Z,0.91
2023-02-27T09:27:02.845Z,1.02
2023-02-27T09:29:29.455Z,1.05
2023-02-27T09:31:55.944Z,1.09
2023-02-27T09:34:22.531Z,1.11
2023-02-27T09:36:48.944Z,1.08
2023-02-27T09:39:15.515Z,1.00
2023-02-27T09:41:54.208Z,0.97
2023-02-27T09:44:45.246Z,0.99
2023-02-27T09:47:27.673Z,1.00
2023-02-27T09:50:02.583Z,1.02
2023-02-27T09:52:30.167Z,1.07
2023-02-27T09:54:56.699Z,1.07
2023-02-27T09:57:38.384Z,1.10
2023-02-27T10:00:19.544Z,1.16
2023-02-27T10:02:58.147Z,1.23
2023-02-27T10:05:41.234Z,1.30
2023-02-27T10:08:35.764Z,1.37
2023-02-27T10:11:07.468Z,1.41
2023-02-27T10:14:18.889Z,1.48
2023-02-27T10:16:46.274Z,1.65
2023-02-27T10:19:23.865Z,1.82
2023-02-27T10:21:50.925Z,2.02
2023-02-27T10:24:30.472Z,2.25
2023-02-27T10:26:58.042Z,2.37
2023-02-27T10:29:31.437Z,2.37
2023-02-27T10:32:07.216Z,2.39
2023-02-27T10:34:33.686Z,2.41
2023-02-27T10:37:01.425Z,2.50
2023-02-27T10:39:29.464Z,2.65
2023-02-27T10:41:57.381Z,2.77
2023-02-27T10:44:24.532Z,2.76
2023-02-27T10:46:52.122Z,2.77
2023-02-27T10:49:20.382Z,2.80
2023-02-27T10:52:05.912Z,2.83
2023-02-27T10:54:32.383Z,2.71
2023-02-27T10:57:01.047Z,2.65
2023-02-27T10:59:40.475Z,2.70
2023-02-27T11:02:39.704Z,2.94
2023-02-27T11:05:16.378Z,3.09
2023-02-27T11:07:42.918Z,3.34
2023-02-27T11:10:22.934Z,3.38
2023-02-27T11:13:03.815Z,3.21
2023-02-27T11:15:35.369Z,3.15
2023-02-27T11:18:38.164Z,3.14
2023-02-27T11:21:23.531Z,3.34
2023-02-27T11:23:50.950Z,3.40
2023-02-27T11:26:24.910Z,3.50
2023-02-27T11:29:11.552Z,3.24
2023-02-27T11:31:38.339Z,3.57
2023-02-27T11:34:05.108Z,3.78
2023-02-27T11:36:41.957Z,3.61
2023-02-27T11:39:22.471Z,3.42
2023-02-27T11:41:48.834Z,3.53
2023-02-27T11:44:17.215Z,3.85
2023-02-27T11:46:49.030Z,3.92
2023-02-27T11:49:21.630Z,4.06
2023-02-27T11:51:57.874Z,4.12
2023-02-27T11:55:00.670Z,4.09
2023-02-27T11:57:30.481Z,4.07
2023-02-27T12:00:06.836Z,4.06
2023-02-27T12:02:46.528Z,4.08
2023-02-27T12:05:18.107Z,3.96
2023-02-27T12:07:46.868Z,4.21
2023-02-27T12:10:18.685Z,4.22
2023-02-27T12:13:11.205Z,4.18
2023-02-27T12:15:42.190Z,4.23
2023-02-27T12:18:30.828Z,4.34
2023-02-27T12:21:40.510Z,4.28
2023-02-27T12:24:38.062Z,4.31
2023-02-27T12:27:13.494Z,4.34
2023-02-27T12:29:41.864Z,4.59
2023-02-27T12:32:31.521Z,4.56
2023-02-27T12:35:19.950Z,4.53
2023-02-27T12:37:46.325Z,4.53
2023-02-27T12:40:16.997Z,4.53
2023-02-27T12:42:49.513Z,4.54
2023-02-27T12:45:43.490Z,4.69
2023-02-27T12:48:23.092Z,4.73
2023-02-27T12:51:12.402Z,4.70
2023-02-27T12:54:06.995Z,4.62
2023-02-27T12:56:41.106Z,4.61
2023-02-27T12:59:22.949Z,4.70
2023-02-27T13:01:58.534Z,4.77
2023-02-27T13:04:42.725Z,4.68
2023-02-27T13:07:24.416Z,4.56
2023-02-27T13:09:53.604Z,4.41
2023-02-27T13:12:19.926Z,4.37
2023-02-27T13:14:47.549Z,4.33
2023-02-27T13:17:23.424Z,4.20
2023-02-27T13:20:12.674Z,4.17
2023-02-27T13:22:43.939Z,4.15
2023-02-27T13:25:14.124Z,4.30
2023-02-27T13:27:47.667Z,4.56
2023-02-27T13:30:16.323Z,5.04
2023-02-27T13:33:01.920Z,5.06
2023-02-27T13:35:38.804Z,4.85
2023-02-27T13:38:32.331Z,4.55
2023-02-27T13:41:24.324Z,4.41
2023-02-27T13:43:54.932Z,4.26
2023-02-27T13:46:33.775Z,4.28
2023-02-27T13:49:09.162Z,4.28
2023-02-27T13:51:35.615Z,4.25
2023-02-27T13:54:14.242Z,4.34
2023-02-27T13:56:59.762Z,4.36
2023-02-27T13:59:34.149Z,4.38
2023-02-27T14:02:04.881Z,4.46
2023-02-27T14:04:33.044Z,4.50
2023-02-27T14:07:21.315Z,4.59
2023-02-27T14:09:52.319Z,4.65
2023-02-27T14:12:45.098Z,4.64
2023-02-27T14:15:21.466Z,4.62
2023-02-27T14:17:50.950Z,4.60
2023-02-27T14:20:29.840Z,4.56
2023-02-27T14:23:15.092Z,4.60
2023-02-27T14:25:44.391Z,4.58
2023-02-27T14:28:21.167Z,4.58
2023-02-27T14:31:08.891Z,4.54
2023-02-27T14:33:48.495Z,4.58
2023-02-27T14:36:26.097Z,4.54
2023-02-27T14:38:57.677Z,4.55
2023-02-27T14:41:27.355Z,4.68
2023-02-27T14:43:57.548Z,4.81
2023-02-27T14:46:31.443Z,4.76
2023-02-27T14:49:02.665Z,4.72
2023-02-27T14:51:33.706Z,4.72
2023-02-27T14:54:06.429Z,4.73
2023-02-27T14:56:33.347Z,4.73
2023-02-27T14:59:05.075Z,4.68
2023-02-27T15:01:35.143Z,4.59
2023-02-27T15:04:01.781Z,4.50
2023-02-27T15:06:34.306Z,4.53
2023-02-27T15:09:00.802Z,4.51
2023-02-27T15:11:27.722Z,4.50
2023-02-27T15:14:02.237Z,4.49
2023-02-27T15:16:30.797Z,4.43
2023-02-27T15:19:03.862Z,4.41
2023-02-27T15:21:34.006Z,4.37
2023-02-27T15:24:05.192Z,4.41
2023-02-27T15:26:40.798Z,4.41
2023-02-27T15:29:08.026Z,4.47
2023-02-27T15:31:34.587Z,4.39
2023-02-27T15:34:01.663Z,4.43
2023-02-27T15:36:33.255Z,4.41
2023-02-27T15:39:20.410Z,4.47
2023-02-27T15:41:49.652Z,4.53
2023-02-27T15:44:17.258Z,4.45
2023-02-27T15:46:44.509Z,4.36
2023-02-27T15:49:15.763Z,4.46
2023-02-27T15:51:42.247Z,4.58
2023-02-27T15:54:09.777Z,4.63
2023-02-27T15:56:36.956Z,4.43
2023-02-27T15:59:03.315Z,4.31
2023-02-27T16:01:34.822Z,4.33
2023-02-27T16:04:05.922Z,4.39
2023-02-27T16:06:37.566Z,4.28
2023-02-27T16:09:19.219Z,4.30
2023-02-27T16:11:45.603Z,4.24
2023-02-27T16:14:36.336Z,4.09
2023-02-27T16:17:02.729Z,3.99
2023-02-27T16:19:31.000Z,3.94
2023-02-27T16:22:13.085Z,3.91
2023-02-27T16:24:39.466Z,3.88
2023-02-27T16:27:05.857Z,3.88
2023-02-27T16:29:44.151Z,3.87
2023-02-27T16:32:30.737Z,3.75
2023-02-27T16:35:20.547Z,3.77
2023-02-27T16:37:47.943Z,3.78
2023-02-27T16:40:19.330Z,3.79
2023-02-27T16:42:46.176Z,3.79
2023-02-27T16:45:17.352Z,3.76
2023-02-27T16:47:44.000Z,3.63
2023-02-27T16:50:26.008Z,3.61
2023-02-27T16:52:52.424Z,3.53
2023-02-27T16:55:18.765Z,3.45
2023-02-27T16:57:45.337Z,3.33
2023-02-27T17:00:15.806Z,3.35
2023-02-27T17:02:42.989Z,3.31
2023-02-27T17:05:09.788Z,3.28
2023-02-27T17:07:36.287Z,3.21
2023-02-27T17:10:02.817Z,3.16
2023-02-27T17:12:29.392Z,3.18
2023-02-27T17:14:56.273Z,3.19
2023-02-27T17:17:22.718Z,3.18
2023-02-27T17:19:49.331Z,3.20
2023-02-27T17:22:15.776Z,3.21
2023-02-27T17:24:42.405Z,3.19
2023-02-27T17:27:09.568Z,3.19
2023-02-27T17:29:37.722Z,3.17
2023-02-27T17:32:04.380Z,3.14
2023-02-27T17:34:30.846Z,3.11
2023-02-27T17:36:57.201Z,3.07
2023-02-27T17:39:23.610Z,3.05
2023-02-27T17:41:52.858Z,3.06
2023-02-27T17:44:19.258Z,3.09
2023-02-27T17:46:45.613Z,3.11
2023-02-27T17:49:12.230Z,3.11
2023-02-27T17:51:38.658Z,3.09
2023-02-27T17:54:05.427Z,3.03
2023-02-27T17:56:32.099Z,2.97
2023-02-27T17:58:58.702Z,2.94
2023-02-27T18:01:25.974Z,2.93
2023-02-27T18:03:54.243Z,2.87
2023-02-27T18:06:21.006Z,2.81
2023-02-27T18:08:48.012Z,2.72
2023-02-27T18:11:16.652Z,2.69
2023-02-27T18:13:43.227Z,2.61
2023-02-27T18:16:09.902Z,2.56
2023-02-27T18:18:40.224Z,2.51
2023-02-27T18:21:12.023Z,2.47
2023-02-27T18:23:38.432Z,2.46
2023-02-27T18:26:04.942Z,2.44
2023-02-27T18:28:31.337Z,2.42
2023-02-27T18:30:57.761Z,2.40
2023-02-27T18:33:24.358Z,2.41
2023-02-27T18:35:50.844Z,2.38
2023-02-27T18:38:17.344Z,2.35
2023-02-27T18:40:44.010Z,2.32
2023-02-27T18:43:10.765Z,2.33
2023-02-27T18:45:37.565Z,2.36
2023-02-27T18:48:04.100Z,2.35
2023-02-27T18:50:30.790Z,2.36
2023-02-27T18:52:58.618Z,2.36
2023-02-27T18:55:25.071Z,2.32
2023-02-27T18:57:51.424Z,2.29
2023-02-27T19:00:18.990Z,2.25
2023-02-27T19:02:45.498Z,2.22
2023-02-27T19:05:12.066Z,2.18
2023-02-27T19:07:38.599Z,2.16
2023-02-27T19:10:06.155Z,2.17
2023-02-27T19:12:32.534Z,2.17
2023-02-27T19:14:58.995Z,2.17
2023-02-27T19:17:25.748Z,2.18
2023-02-27T19:19:55.212Z,2.16
2023-02-27T19:22:21.669Z,2.10
2023-02-27T19:24:49.710Z,2.12
2023-02-27T19:27:17.125Z,2.13
2023-02-27T19:29:43.623Z,2.12
2023-02-27T19:32:10.455Z,2.13
2023-02-27T19:34:37.925Z,2.10
2023-02-27T19:37:04.328Z,2.09
2023-02-27T19:39:30.746Z,2.06
2023-02-27T19:41:57.440Z,2.06
2023-02-27T19:44:23.857Z,2.08
2023-02-27T19:46:52.110Z,2.07
2023-02-27T19:49:18.883Z,2.03
2023-02-27T19:51:45.255Z,1.99
2023-02-27T19:54:15.764Z,1.97
2023-02-27T19:56:42.231Z,1.92
2023-02-27T19:59:09.673Z,1.89
2023-02-27T20:01:38.740Z,1.86
2023-02-27T20:04:06.013Z,1.83
2023-02-27T20:06:33.709Z,1.77
2023-02-27T20:09:00.224Z,1.71
2023-02-27T20:11:33.017Z,1.65
2023-02-27T20:13:59.752Z,1.64
2023-02-27T20:16:28.893Z,1.62
2023-02-27T20:18:55.810Z,1.64
2023-02-27T20:21:23.139Z,1.64
2023-02-27T20:23:51.519Z,1.64
2023-02-27T20:26:19.098Z,1.60
2023-02-27T20:28:46.131Z,1.54
2023-02-27T20:31:12.907Z,1.48
2023-02-27T20:33:40.044Z,1.44
2023-02-27T20:36:07.541Z,1.43
2023-02-27T20:38:34.135Z,1.41
2023-02-27T20:41:00.813Z,1.38
2023-02-27T20:43:30.364Z,1.36
2023-02-27T20:45:56.941Z,1.29
2023-02-27T20:48:23.458Z,1.22
2023-02-27T20:50:49.850Z,1.16
2023-02-27T20:53:16.209Z,1.03
2023-02-27T20:55:49.290Z,0.94
2023-02-27T20:58:16.031Z,0.84
2023-02-27T21:00:42.507Z,0.74
2023-02-27T21:03:08.889Z,0.65
2023-02-27T21:05:35.236Z,0.58
2023-02-27T21:08:01.617Z,0.53
2023-02-27T21:10:27.980Z,0.50
2023-02-27T21:12:54.392Z,0.46
2023-02-27T21:15:20.734Z,0.38
2023-02-27T21:17:47.115Z,0.31
2023-02-27T21:20:13.896Z,0.26
2023-02-27T21:22:40.418Z,0.24
2023-02-27T21:25:07.063Z,0.19
2023-02-27T21:27:33.459Z,0.18
2023-02-27T21:29:59.832Z,0.20
2023-02-27T21:32:26.440Z,0.27
2023-02-27T21:34:52.826Z,0.32
2023-02-27T21:37:19.164Z,0.37
2023-02-27T21:39:50.398Z,0.44
2023-02-27T21:42:16.757Z,0.47
2023-02-27T21:44:43.747Z,0.52
2023-02-27T21:47:10.421Z,0.54
2023-02-27T21:49:37.199Z,0.54
2023-02-27T21:52:03.612Z,0.55
2023-02-27T21:54:30.033Z,0.54
2023-02-27T21:56:58.741Z,0.52
2023-02-27T21:59:25.902Z,0.52
2023-02-27T22:01:52.293Z,0.47
2023-02-27T22:04:19.387Z,0.47
2023-02-27T22:06:46.348Z,0.48
2023-02-27T22:09:12.776Z,0.46
2023-02-27T22:11:40.751Z,0.47
2023-02-27T22:14:07.430Z,0.48
2023-02-27T22:16:34.034Z,0.50
2023-02-27T22:19:05.028Z,0.55
2023-02-27T22:21:32.222Z,0.58
2023-02-27T22:23:58.847Z,0.60
2023-02-27T22:26:26.372Z,0.63
2023-02-27T22:28:52.775Z,0.65
2023-02-27T22:31:20.933Z,0.69
2023-02-27T22:33:48.528Z,0.68
2023-02-27T22:36:17.277Z,0.69
2023-02-27T22:38:43.651Z,0.69
2023-02-27T22:41:14.728Z,0.70
2023-02-27T22:43:41.243Z,0.68
2023-02-27T22:46:08.217Z,0.66
2023-02-27T22:48:35.070Z,0.62
2023-02-27T22:51:19.661Z,0.55
2023-02-27T22:53:46.629Z,0.45
2023-02-27T22:56:14.607Z,0.37
2023-02-27T22:58:41.637Z,0.34
2023-02-27T23:01:16.385Z,0.24
2023-02-27T23:03:43.763Z,0.16
2023-02-27T23:06:15.175Z,0.10
2023-02-27T23:08:42.484Z,0.05
2023-02-27T23:11:09.737Z,0.01
2023-02-27T23:13:36.519Z,-0.03
2023-02-27T23:16:08.136Z,-0.09
2023-02-27T23:18:34.733Z,-0.10
2023-02-27T23:21:03.380Z,-0.15
2023-02-27T23:23:29.929Z,-0.20
2023-02-27T23:25:56.912Z,-0.22
2023-02-27T23:28:23.252Z,-0.21
2023-02-27T23:30:50.032Z,-0.20
2023-02-27T23:33:16.647Z,-0.17
2023-02-27T23:35:43.321Z,-0.18
2023-02-27T23:38:09.694Z,-0.21
2023-02-27T23:40:36.245Z,-0.23
2023-02-27T23:43:02.571Z,-0.27
2023-02-27T23:45:29.186Z,-0.32
2023-02-27T23:47:56.358Z,-0.38
2023-02-27T23:50:24.645Z,-0.42
2023-02-27T23:52:52.102Z,-0.41
2023-02-27T23:55:19.016Z,-0.40
2023-02-27T23:57:45.450Z,-0.39
